createdAt,value
2018-11-25T00:00:08.411Z,94.65
2018-11-25T00:00:49.043Z,94.56
2018-11-25T00:01:29.742Z,94.18
2018-11-25T00:02:10.322Z,94.08
2018-11-25T00:02:50.886Z,94.08
2018-11-25T00:03:31.432Z,94.37
2018-11-25T00:04:12.001Z,94.37
2018-11-25T00:04:52.571Z,94.37
2018-11-25T00:05:33.157Z,94.46
2018-11-25T00:06:13.700Z,94.18
2018-11-25T00:06:54.265Z,94.08
2018-11-25T00:07:35.001Z,94.08
2018-11-25T00:08:15.389Z,94.46
2018-11-25T00:08:55.955Z,94.08
2018-11-25T00:09:36.520Z,94.27
2018-11-25T00:10:17.132Z,94.27
2018-11-25T00:10:57.680Z,94.37
2018-11-25T00:11:38.242Z,94.08
2018-11-25T00:12:18.785Z,94.18
2018-11-25T00:12:59.348Z,94.37
2018-11-25T00:13:39.900Z,94.65
2018-11-25T00:14:20.461Z,94.74
2018-11-25T00:15:01.007Z,94.74
2018-11-25T00:15:41.566Z,94.37
2018-11-25T00:16:22.123Z,94.93
2018-11-25T00:17:02.703Z,94.84
2018-11-25T00:17:43.243Z,94.74
2018-11-25T00:18:23.797Z,94.65
2018-11-25T00:19:04.353Z,95.69
2018-11-25T00:19:44.934Z,94.56
2018-11-25T00:20:25.534Z,94.74
2018-11-25T00:21:06.089Z,94.74
2018-11-25T00:21:46.655Z,94.74
2018-11-25T00:22:27.222Z,94.93
2018-11-25T00:23:07.760Z,95.69
2018-11-25T00:23:48.312Z,95.31
2018-11-25T00:24:28.870Z,95.12
2018-11-25T00:25:09.434Z,94.46
2018-11-25T00:25:50.054Z,95.5
2018-11-25T00:26:30.610Z,95.41
2018-11-25T00:27:11.184Z,95.5
2018-11-25T00:27:51.763Z,94.84
2018-11-25T00:28:32.339Z,94.74
2018-11-25T00:29:12.890Z,94.65
2018-11-25T00:29:53.466Z,94.84
2018-11-25T00:30:34.027Z,94.74
2018-11-25T00:31:14.584Z,94.65
2018-11-25T00:31:55.167Z,94.65
2018-11-25T00:32:35.729Z,94.74
2018-11-25T00:33:16.296Z,94.46
2018-11-25T00:33:56.915Z,94.56
2018-11-25T00:34:37.459Z,94.74
2018-11-25T00:35:18.031Z,94.46
2018-11-25T00:35:58.585Z,94.46
2018-11-25T00:36:39.130Z,94.46
2018-11-25T00:37:19.690Z,94.65
2018-11-25T00:38:00.265Z,94.74
2018-11-25T00:38:40.811Z,95.03
2018-11-25T00:39:21.401Z,94.74
2018-11-25T00:40:01.931Z,94.46
2018-11-25T00:40:42.512Z,94.08
2018-11-25T00:41:23.089Z,94.46
2018-11-25T00:42:03.654Z,94.37
2018-11-25T00:42:44.206Z,94.37
2018-11-25T00:43:24.768Z,94.37
2018-11-25T00:44:05.316Z,93.89
2018-11-25T00:44:45.905Z,93.8
2018-11-25T00:45:26.475Z,94.18
2018-11-25T00:46:07.057Z,94.08
2018-11-25T00:46:47.594Z,94.18
2018-11-25T00:47:28.146Z,94.18
2018-11-25T00:48:08.695Z,93.51
2018-11-25T00:48:49.254Z,93.89
2018-11-25T00:49:29.809Z,93.7
2018-11-25T00:50:10.367Z,94.18
2018-11-25T00:50:50.988Z,93.89
2018-11-25T00:51:31.509Z,93.99
2018-11-25T00:52:12.079Z,94.18
2018-11-25T00:52:52.626Z,93.7
2018-11-25T00:53:33.172Z,93.7
2018-11-25T00:54:13.719Z,93.7
2018-11-25T00:54:54.276Z,93.7
2018-11-25T00:55:34.838Z,93.7
2018-11-25T00:56:15.380Z,93.61
2018-11-25T00:56:55.931Z,94.08
2018-11-25T00:57:36.488Z,94.08
2018-11-25T00:58:17.063Z,93.7
2018-11-25T00:58:57.615Z,93.61
2018-11-25T00:59:38.171Z,93.8
2018-11-25T01:00:18.759Z,93.89
2018-11-25T01:00:59.295Z,93.61
2018-11-25T01:01:39.851Z,93.7
2018-11-25T01:02:20.448Z,93.61
2018-11-25T01:03:01.000Z,93.8
2018-11-25T01:03:41.561Z,94.18
2018-11-25T01:04:22.148Z,93.89
2018-11-25T01:05:02.697Z,94.27
2018-11-25T01:05:43.269Z,94.27
2018-11-25T01:06:23.822Z,94.37
2018-11-25T01:07:04.383Z,94.37
2018-11-25T01:07:44.938Z,94.18
2018-11-25T01:08:25.505Z,94.27
2018-11-25T01:09:06.071Z,93.8
2018-11-25T01:09:46.648Z,94.08
2018-11-25T01:10:27.234Z,94.18
2018-11-25T01:11:07.817Z,93.7
2018-11-25T01:11:48.384Z,93.89
2018-11-25T01:12:28.938Z,94.08
2018-11-25T01:13:09.504Z,93.7
2018-11-25T01:13:50.052Z,93.8
2018-11-25T01:14:30.610Z,93.61
2018-11-25T01:15:11.169Z,93.8
2018-11-25T01:15:51.724Z,93.7
2018-11-25T01:16:32.287Z,94.27
2018-11-25T01:17:12.849Z,94.18
2018-11-25T01:17:53.400Z,94.08
2018-11-25T01:18:33.957Z,94.56
2018-11-25T01:19:14.526Z,94.65
2018-11-25T01:19:55.115Z,94.65
2018-11-25T01:20:35.675Z,95.03
2018-11-25T01:21:16.266Z,95.5
2018-11-25T01:21:56.862Z,94.74
2018-11-25T01:22:37.431Z,95.31
2018-11-25T01:23:17.989Z,94.93
2018-11-25T01:23:58.538Z,95.03
2018-11-25T01:24:39.088Z,95.41
2018-11-25T01:25:19.631Z,95.31
2018-11-25T01:26:00.203Z,95.22
2018-11-25T01:26:40.790Z,95.03
2018-11-25T01:27:21.346Z,95.12
2018-11-25T01:28:01.899Z,95.12
2018-11-25T01:28:42.451Z,95.12
2018-11-25T01:29:22.993Z,95.22
2018-11-25T01:30:03.566Z,95.22
2018-11-25T01:30:44.131Z,95.03
2018-11-25T01:31:24.684Z,95.31
2018-11-25T01:32:05.245Z,95.41
2018-11-25T01:32:45.811Z,95.41
2018-11-25T01:33:26.361Z,95.41
2018-11-25T01:34:06.915Z,95.12
2018-11-25T01:34:47.487Z,95.31
2018-11-25T01:35:28.045Z,94.93
2018-11-25T01:36:08.603Z,95.5
2018-11-25T01:36:49.156Z,95.6
2018-11-25T01:37:29.712Z,95.12
2018-11-25T01:38:10.263Z,95.79
2018-11-25T01:38:50.816Z,94.65
2018-11-25T01:39:31.374Z,95.41
2018-11-25T01:40:11.950Z,95.41
2018-11-25T01:40:52.488Z,94.93
2018-11-25T01:41:33.041Z,95.22
2018-11-25T01:42:13.614Z,95.03
2018-11-25T01:42:54.177Z,95.41
2018-11-25T01:43:34.729Z,95.41
2018-11-25T01:44:15.290Z,95.12
2018-11-25T01:44:55.874Z,95.03
2018-11-25T01:45:36.411Z,94.93
2018-11-25T01:46:16.982Z,94.65
2018-11-25T01:46:57.535Z,95.6
2018-11-25T01:47:38.092Z,95.41
2018-11-25T01:48:18.639Z,95.6
2018-11-25T01:48:59.193Z,95.5
2018-11-25T01:49:39.741Z,95.98
2018-11-25T01:50:20.294Z,95.79
2018-11-25T01:51:00.870Z,95.98
2018-11-25T01:51:41.429Z,95.88
2018-11-25T01:52:21.980Z,95.98
2018-11-25T01:53:02.538Z,95.88
2018-11-25T01:53:43.098Z,95.98
2018-11-25T01:54:23.665Z,95.88
2018-11-25T01:55:04.222Z,95.69
2018-11-25T01:55:44.786Z,95.79
2018-11-25T01:56:25.343Z,95.98
2018-11-25T01:57:05.891Z,96.36
2018-11-25T01:57:46.446Z,95.98
2018-11-25T01:58:26.999Z,95.79
2018-11-25T01:59:07.552Z,95.98
2018-11-25T01:59:48.102Z,95.88
2018-11-25T02:00:28.678Z,95.88
2018-11-25T02:01:09.228Z,95.69
2018-11-25T02:01:49.781Z,96.08
2018-11-25T02:02:30.358Z,95.98
2018-11-25T02:03:10.913Z,96.08
2018-11-25T02:03:51.472Z,95.98
2018-11-25T02:04:32.041Z,95.69
2018-11-25T02:05:12.583Z,95.88
2018-11-25T02:05:53.140Z,95.79
2018-11-25T02:06:33.704Z,95.22
2018-11-25T02:07:14.272Z,95.6
2018-11-25T02:07:54.830Z,95.79
2018-11-25T02:08:35.377Z,95.98
2018-11-25T02:09:15.958Z,95.6
2018-11-25T02:09:56.763Z,95.98
2018-11-25T02:10:37.321Z,95.79
2018-11-25T02:11:17.877Z,95.79
2018-11-25T02:11:58.431Z,95.98
2018-11-25T02:12:39.001Z,95.98
2018-11-25T02:13:19.549Z,96.64
2018-11-25T02:14:00.109Z,96.36
2018-11-25T02:14:40.676Z,96.36
2018-11-25T02:15:21.219Z,96.45
2018-11-25T02:16:01.779Z,96.36
2018-11-25T02:16:42.321Z,96.36
2018-11-25T02:17:22.912Z,96.17
2018-11-25T02:18:03.467Z,96.26
2018-11-25T02:18:44.041Z,95.69
2018-11-25T02:19:24.612Z,95.88
2018-11-25T02:20:05.220Z,95.88
2018-11-25T02:20:45.774Z,95.6
2018-11-25T02:21:26.350Z,96.08
2018-11-25T02:22:06.952Z,95.79
2018-11-25T02:22:47.525Z,95.79
2018-11-25T02:23:28.096Z,95.41
2018-11-25T02:24:08.665Z,95.6
2018-11-25T02:24:49.221Z,95.41
2018-11-25T02:25:29.775Z,95.41
2018-11-25T02:26:10.348Z,95.22
2018-11-25T02:26:50.927Z,95.5
2018-11-25T02:27:31.489Z,95.69
2018-11-25T02:28:12.048Z,95.69
2018-11-25T02:28:52.606Z,95.12
2018-11-25T02:29:33.176Z,94.93
2018-11-25T02:30:13.723Z,95.22
2018-11-25T02:30:54.278Z,95.22
2018-11-25T02:31:34.842Z,94.93
2018-11-25T02:32:15.430Z,95.79
2018-11-25T02:32:55.964Z,95.41
2018-11-25T02:33:36.544Z,95.6
2018-11-25T02:34:17.104Z,95.6
2018-11-25T02:34:57.652Z,95.79
2018-11-25T02:35:38.215Z,95.79
2018-11-25T02:36:18.754Z,95.12
2018-11-25T02:36:59.314Z,95.12
2018-11-25T02:37:39.865Z,94.93
2018-11-25T02:38:20.420Z,95.12
2018-11-25T02:39:00.992Z,95.12
2018-11-25T02:39:41.554Z,94.93
2018-11-25T02:40:22.111Z,95.12
2018-11-25T02:41:02.668Z,95.12
2018-11-25T02:41:43.226Z,94.93
2018-11-25T02:42:23.786Z,95.22
2018-11-25T02:43:04.350Z,95.22
2018-11-25T02:43:44.915Z,95.41
2018-11-25T02:44:25.489Z,94.93
2018-11-25T02:45:06.041Z,94.93
2018-11-25T02:45:46.604Z,95.03
2018-11-25T02:46:27.158Z,95.12
2018-11-25T02:47:07.742Z,95.12
2018-11-25T02:47:48.304Z,95.41
2018-11-25T02:48:28.858Z,95.22
2018-11-25T02:49:09.416Z,94.74
2018-11-25T02:49:49.975Z,95.22
2018-11-25T02:50:30.541Z,94.65
2018-11-25T02:51:11.095Z,94.37
2018-11-25T02:51:51.629Z,94.56
2018-11-25T02:52:32.187Z,94.84
2018-11-25T02:53:12.744Z,94.93
2018-11-25T02:53:53.300Z,94.74
2018-11-25T02:54:33.855Z,94.46
2018-11-25T02:55:14.404Z,94.65
2018-11-25T02:55:54.977Z,94.65
2018-11-25T02:56:35.556Z,95.22
2018-11-25T02:57:16.122Z,94.93
2018-11-25T02:57:56.725Z,94.56
2018-11-25T02:58:37.283Z,94.93
2018-11-25T02:59:17.852Z,94.84
2018-11-25T02:59:58.414Z,95.03
2018-11-25T03:00:39.018Z,94.37
2018-11-25T03:01:19.589Z,95.12
2018-11-25T03:02:00.141Z,94.65
2018-11-25T03:02:40.741Z,95.12
2018-11-25T03:03:21.319Z,95.22
2018-11-25T03:04:01.896Z,95.22
2018-11-25T03:04:42.473Z,95.41
2018-11-25T03:05:23.061Z,95.22
2018-11-25T03:06:03.644Z,95.31
2018-11-25T03:06:44.230Z,95.22
2018-11-25T03:07:24.786Z,95.41
2018-11-25T03:08:05.342Z,95.12
2018-11-25T03:08:45.909Z,94.74
2018-11-25T03:09:26.477Z,94.74
2018-11-25T03:10:07.036Z,94.84
2018-11-25T03:10:47.640Z,95.31
2018-11-25T03:11:28.258Z,95.22
2018-11-25T03:12:08.857Z,95.41
2018-11-25T03:12:49.420Z,95.41
2018-11-25T03:13:29.970Z,95.31
2018-11-25T03:14:10.562Z,95.03
2018-11-25T03:14:51.117Z,95.12
2018-11-25T03:15:31.695Z,95.12
2018-11-25T03:16:12.252Z,95.12
2018-11-25T03:16:52.799Z,95.03
2018-11-25T03:17:33.394Z,95.22
2018-11-25T03:18:13.922Z,94.84
2018-11-25T03:18:54.484Z,94.74
2018-11-25T03:19:35.039Z,95.22
2018-11-25T03:20:15.586Z,95.22
2018-11-25T03:20:56.142Z,95.31
2018-11-25T03:21:36.725Z,95.5
2018-11-25T03:22:17.255Z,95.5
2018-11-25T03:22:57.804Z,95.31
2018-11-25T03:23:38.371Z,95.12
2018-11-25T03:24:18.925Z,95.41
2018-11-25T03:24:59.499Z,95.12
2018-11-25T03:25:40.090Z,95.22
2018-11-25T03:26:20.675Z,94.74
2018-11-25T03:27:01.266Z,95.22
2018-11-25T03:27:41.840Z,95.12
2018-11-25T03:28:22.380Z,94.93
2018-11-25T03:29:02.937Z,94.65
2018-11-25T03:29:43.499Z,95.88
2018-11-25T03:30:24.056Z,95.6
2018-11-25T03:31:04.633Z,95.6
2018-11-25T03:31:45.190Z,95.5
2018-11-25T03:32:25.765Z,95.6
2018-11-25T03:33:06.315Z,95.6
2018-11-25T03:33:46.880Z,95.69
2018-11-25T03:34:27.445Z,95.79
2018-11-25T03:35:08.040Z,95.6
2018-11-25T03:35:48.599Z,95.69
2018-11-25T03:36:29.194Z,95.69
2018-11-25T03:37:09.733Z,95.79
2018-11-25T03:37:50.292Z,95.6
2018-11-25T03:38:30.866Z,94.65
2018-11-25T03:39:11.445Z,94.93
2018-11-25T03:39:52.067Z,95.12
2018-11-25T03:40:32.647Z,95.03
2018-11-25T03:41:13.213Z,95.12
2018-11-25T03:41:53.774Z,95.12
2018-11-25T03:42:34.349Z,94.93
2018-11-25T03:43:14.952Z,95.12
2018-11-25T03:43:55.480Z,95.03
2018-11-25T03:44:36.044Z,95.88
2018-11-25T03:45:16.615Z,95.41
2018-11-25T03:45:57.195Z,95.6
2018-11-25T03:46:37.757Z,95.03
2018-11-25T03:47:18.333Z,95.5
2018-11-25T03:47:58.896Z,95.12
2018-11-25T03:48:39.459Z,95.79
2018-11-25T03:49:20.007Z,95.88
2018-11-25T03:50:00.634Z,95.41
2018-11-25T03:50:41.186Z,95.79
2018-11-25T03:51:21.756Z,95.41
2018-11-25T03:52:02.337Z,95.6
2018-11-25T03:52:42.927Z,95.79
2018-11-25T03:53:23.522Z,95.79
2018-11-25T03:54:04.116Z,95.5
2018-11-25T03:54:44.671Z,95.98
2018-11-25T03:55:25.208Z,95.69
2018-11-25T03:56:05.778Z,95.41
2018-11-25T03:56:46.350Z,95.88
2018-11-25T03:57:26.945Z,95.88
2018-11-25T03:58:07.529Z,95.41
2018-11-25T03:58:48.090Z,95.98
2018-11-25T03:59:28.676Z,95.5
2018-11-25T04:00:09.223Z,95.5
2018-11-25T04:00:49.776Z,95.79
2018-11-25T04:01:30.378Z,95.88
2018-11-25T04:02:10.933Z,95.5
2018-11-25T04:02:51.496Z,95.88
2018-11-25T04:03:32.061Z,95.69
2018-11-25T04:04:12.609Z,95.6
2018-11-25T04:04:53.206Z,95.6
2018-11-25T04:05:33.761Z,95.41
2018-11-25T04:06:14.303Z,95.5
2018-11-25T04:06:54.853Z,95.6
2018-11-25T04:07:35.436Z,95.6
2018-11-25T04:08:15.999Z,95.41
2018-11-25T04:08:56.615Z,95.69
2018-11-25T04:09:37.159Z,95.69
2018-11-25T04:10:17.707Z,95.6
2018-11-25T04:10:58.300Z,95.6
2018-11-25T04:11:38.874Z,95.88
2018-11-25T04:12:19.428Z,95.88
2018-11-25T04:12:59.996Z,95.79
2018-11-25T04:13:40.558Z,95.12
2018-11-25T04:14:21.112Z,95.6
2018-11-25T04:15:01.665Z,95.69
2018-11-25T04:15:42.241Z,95.22
2018-11-25T04:16:22.862Z,95.22
2018-11-25T04:17:03.426Z,95.22
2018-11-25T04:17:43.969Z,95.03
2018-11-25T04:18:24.552Z,95.12
2018-11-25T04:19:05.110Z,95.88
2018-11-25T04:19:45.677Z,95.41
2018-11-25T04:20:26.243Z,95.79
2018-11-25T04:21:06.798Z,95.41
2018-11-25T04:21:47.363Z,95.69
2018-11-25T04:22:27.919Z,95.6
2018-11-25T04:23:08.479Z,95.41
2018-11-25T04:23:49.023Z,95.6
2018-11-25T04:24:29.591Z,95.41
2018-11-25T04:25:10.242Z,95.6
2018-11-25T04:25:50.783Z,95.6
2018-11-25T04:26:31.343Z,95.12
2018-11-25T04:27:11.881Z,95.31
2018-11-25T04:27:52.460Z,95.79
2018-11-25T04:28:33.082Z,95.98
2018-11-25T04:29:13.638Z,95.88
2018-11-25T04:29:54.183Z,95.79
2018-11-25T04:30:34.741Z,95.79
2018-11-25T04:31:15.286Z,95.5
2018-11-25T04:31:55.848Z,95.6
2018-11-25T04:32:36.408Z,95.41
2018-11-25T04:33:16.955Z,95.5
2018-11-25T04:33:57.514Z,95.79
2018-11-25T04:34:38.075Z,95.6
2018-11-25T04:35:18.645Z,95.41
2018-11-25T04:35:59.193Z,94.93
2018-11-25T04:36:39.772Z,94.93
2018-11-25T04:37:20.365Z,95.12
2018-11-25T04:38:00.946Z,95.03
2018-11-25T04:38:41.496Z,94.93
2018-11-25T04:39:22.057Z,95.17
2018-11-25T04:40:02.612Z,94.98
2018-11-25T04:40:43.168Z,95.22
2018-11-25T04:41:23.730Z,95.27
2018-11-25T04:42:04.288Z,95.31
2018-11-25T04:42:44.841Z,95.31
2018-11-25T04:43:25.398Z,95.03
2018-11-25T04:44:05.952Z,95.12
2018-11-25T04:44:46.508Z,95.79
2018-11-25T04:45:27.066Z,95.69
2018-11-25T04:46:07.614Z,95.88
2018-11-25T04:46:48.170Z,95.6
2018-11-25T04:47:28.735Z,95.69
2018-11-25T04:48:09.299Z,95.6
2018-11-25T04:48:49.862Z,95.5
2018-11-25T04:49:30.416Z,95.6
2018-11-25T04:50:10.979Z,95.5
2018-11-25T04:50:51.546Z,95.55
2018-11-25T04:51:32.114Z,95.46
2018-11-25T04:52:12.666Z,95.79
2018-11-25T04:52:53.221Z,94.98
2018-11-25T04:53:33.775Z,95.12
2018-11-25T04:54:14.331Z,94.93
2018-11-25T04:54:54.878Z,95.6
2018-11-25T04:55:35.445Z,95.79
2018-11-25T04:56:15.983Z,95.69
2018-11-25T04:56:56.542Z,95.79
2018-11-25T04:57:37.110Z,95.41
2018-11-25T04:58:17.766Z,95.69
2018-11-25T04:58:58.316Z,95.5
2018-11-25T04:59:38.872Z,95.69
2018-11-25T05:00:19.431Z,95.79
2018-11-25T05:01:00.022Z,95.79
2018-11-25T05:01:40.562Z,95.79
2018-11-25T05:02:21.119Z,95.79
2018-11-25T05:03:01.689Z,95.6
2018-11-25T05:03:42.249Z,95.41
2018-11-25T05:04:22.802Z,95.6
2018-11-25T05:05:03.373Z,95.55
2018-11-25T05:05:43.943Z,95.6
2018-11-25T05:06:24.529Z,95.41
2018-11-25T05:07:05.085Z,95.69
2018-11-25T05:07:45.637Z,95.31
2018-11-25T05:08:26.214Z,95.31
2018-11-25T05:09:06.778Z,95.22
2018-11-25T05:09:47.351Z,95.41
2018-11-25T05:10:27.908Z,95.41
2018-11-25T05:11:08.463Z,95.69
2018-11-25T05:11:49.032Z,95.41
2018-11-25T05:12:29.594Z,95.5
2018-11-25T05:13:10.153Z,95.88
2018-11-25T05:13:50.700Z,95.79
2018-11-25T05:14:31.254Z,95.88
2018-11-25T05:15:11.816Z,95.69
2018-11-25T05:15:52.369Z,95.98
2018-11-25T05:16:32.921Z,96.45
2018-11-25T05:17:13.478Z,95.79
2018-11-25T05:17:54.043Z,96.36
2018-11-25T05:18:34.622Z,96.17
2018-11-25T05:19:15.246Z,96.26
2018-11-25T05:19:55.807Z,96.26
2018-11-25T05:20:36.364Z,96.36
2018-11-25T05:21:16.936Z,95.98
2018-11-25T05:21:57.568Z,95.6
2018-11-25T05:22:38.140Z,95.93
2018-11-25T05:23:18.692Z,95.41
2018-11-25T05:23:59.266Z,95.5
2018-11-25T05:24:39.814Z,95.98
2018-11-25T05:25:20.386Z,95.88
2018-11-25T05:26:00.949Z,95.84
2018-11-25T05:26:41.512Z,95.88
2018-11-25T05:27:22.095Z,95.46
2018-11-25T05:28:02.646Z,95.93
2018-11-25T05:28:43.212Z,95.84
2018-11-25T05:29:23.773Z,95.79
2018-11-25T05:30:04.346Z,95.55
2018-11-25T05:30:44.935Z,96.03
2018-11-25T05:31:25.491Z,96.12
2018-11-25T05:32:06.057Z,96.12
2018-11-25T05:32:46.609Z,95.74
2018-11-25T05:33:27.174Z,95.74
2018-11-25T05:34:07.740Z,96.12
2018-11-25T05:34:48.292Z,95.93
2018-11-25T05:35:28.834Z,95.46
2018-11-25T05:36:09.390Z,95.65
2018-11-25T05:36:50.036Z,95.27
2018-11-25T05:37:30.548Z,95.46
2018-11-25T05:38:11.105Z,95.65
2018-11-25T05:38:51.694Z,95.07
2018-11-25T05:39:32.243Z,94.89
2018-11-25T05:40:12.798Z,94.98
2018-11-25T05:40:53.357Z,94.98
2018-11-25T05:41:33.938Z,95.07
2018-11-25T05:42:14.489Z,95.74
2018-11-25T05:42:55.062Z,95.93
2018-11-25T05:43:35.692Z,95.65
2018-11-25T05:44:16.220Z,95.74
2018-11-25T05:44:56.767Z,95.65
2018-11-25T05:45:37.357Z,95.74
2018-11-25T05:46:17.890Z,95.46
2018-11-25T05:46:58.462Z,95.17
2018-11-25T05:47:39.062Z,95.17
2018-11-25T05:48:19.613Z,94.79
2018-11-25T05:49:00.182Z,95.27
2018-11-25T05:49:40.794Z,95.17
2018-11-25T05:50:21.384Z,95.17
2018-11-25T05:51:01.937Z,95.36
2018-11-25T05:51:42.503Z,94.98
2018-11-25T05:52:23.089Z,94.98
2018-11-25T05:53:03.642Z,95.17
2018-11-25T05:53:44.197Z,94.98
2018-11-25T05:54:24.842Z,95.07
2018-11-25T05:55:05.383Z,94.98
2018-11-25T05:55:45.966Z,94.98
2018-11-25T05:56:26.521Z,95.84
2018-11-25T05:57:07.077Z,95.46
2018-11-25T05:57:47.641Z,95.65
2018-11-25T05:58:28.197Z,95.74
2018-11-25T05:59:08.737Z,95.84
2018-11-25T05:59:49.319Z,95.27
2018-11-25T06:00:29.916Z,95.84
2018-11-25T06:01:10.539Z,95.46
2018-11-25T06:01:51.109Z,95.65
2018-11-25T06:02:31.721Z,95.36
2018-11-25T06:03:12.274Z,95.74
2018-11-25T06:03:52.833Z,95.65
2018-11-25T06:04:33.389Z,95.65
2018-11-25T06:05:13.969Z,95.65
2018-11-25T06:05:54.531Z,95.36
2018-11-25T06:06:35.070Z,95.36
2018-11-25T06:07:15.625Z,95.74
2018-11-25T06:07:56.168Z,95.36
2018-11-25T06:08:36.763Z,95.17
2018-11-25T06:09:17.281Z,95.36
2018-11-25T06:09:57.847Z,95.84
2018-11-25T06:10:38.415Z,95.84
2018-11-25T06:11:18.971Z,96.12
2018-11-25T06:11:59.526Z,96.03
2018-11-25T06:12:40.080Z,95.74
2018-11-25T06:13:20.685Z,95.74
2018-11-25T06:14:01.234Z,95.74
2018-11-25T06:14:41.818Z,96.12
2018-11-25T06:15:22.367Z,96.12
2018-11-25T06:16:02.944Z,95.84
2018-11-25T06:16:43.491Z,95.74
2018-11-25T06:17:24.046Z,95.65
2018-11-25T06:18:04.612Z,95.46
2018-11-25T06:18:45.244Z,95.65
2018-11-25T06:19:25.817Z,94.98
2018-11-25T06:20:06.388Z,94.98
2018-11-25T06:20:46.952Z,94.98
2018-11-25T06:21:27.526Z,94.98
2018-11-25T06:22:08.089Z,95.17
2018-11-25T06:22:48.630Z,94.98
2018-11-25T06:23:29.200Z,95.46
2018-11-25T06:24:09.741Z,95.46
2018-11-25T06:24:50.305Z,95.46
2018-11-25T06:25:30.861Z,95.46
2018-11-25T06:26:11.414Z,95.74
2018-11-25T06:26:51.988Z,95.84
2018-11-25T06:27:38.001Z,94.98
2018-11-25T06:28:13.134Z,95.36
2018-11-25T06:28:53.705Z,95.17
2018-11-25T06:29:34.253Z,95.17
2018-11-25T06:30:14.809Z,94.89
2018-11-25T06:30:55.360Z,95.27
2018-11-25T06:31:35.916Z,95.17
2018-11-25T06:32:16.459Z,94.89
2018-11-25T06:32:57.024Z,95.27
2018-11-25T06:33:37.609Z,94.98
2018-11-25T06:34:18.184Z,95.17
2018-11-25T06:34:58.755Z,95.84
2018-11-25T06:35:39.315Z,95.84
2018-11-25T06:36:19.861Z,95.93
2018-11-25T06:37:00.440Z,95.65
2018-11-25T06:37:41.022Z,95.74
2018-11-25T06:38:21.562Z,95.46
2018-11-25T06:39:02.111Z,95.65
2018-11-25T06:39:42.660Z,95.84
2018-11-25T06:40:23.340Z,95.74
2018-11-25T06:41:03.940Z,95.74
2018-11-25T06:41:44.496Z,95.93
2018-11-25T06:42:25.052Z,95.74
2018-11-25T06:43:05.608Z,95.65
2018-11-25T06:43:46.153Z,96.03
2018-11-25T06:44:26.714Z,95.74
2018-11-25T06:45:07.267Z,95.65
2018-11-25T06:45:47.836Z,95.93
2018-11-25T06:46:28.420Z,95.93
2018-11-25T06:47:08.984Z,95.93
2018-11-25T06:47:49.550Z,95.84
2018-11-25T06:48:30.109Z,95.84
2018-11-25T06:49:10.667Z,95.74
2018-11-25T06:49:51.243Z,95.74
2018-11-25T06:50:31.831Z,95.65
2018-11-25T06:51:12.402Z,95.65
2018-11-25T06:51:52.964Z,95.55
2018-11-25T06:52:33.523Z,95.55
2018-11-25T06:53:14.095Z,95.17
2018-11-25T06:53:54.638Z,95.84
2018-11-25T06:54:35.210Z,95.74
2018-11-25T06:55:15.767Z,95.84
2018-11-25T06:55:56.394Z,95.93
2018-11-25T06:56:36.956Z,95.74
2018-11-25T06:57:17.518Z,95.55
2018-11-25T06:57:58.074Z,95.93
2018-11-25T06:58:38.689Z,95.55
2018-11-25T06:59:19.252Z,95.74
2018-11-25T06:59:59.811Z,95.55
2018-11-25T07:00:40.359Z,95.74
2018-11-25T07:01:20.923Z,95.65
2018-11-25T07:02:01.483Z,95.65
2018-11-25T07:02:42.048Z,95.65
2018-11-25T07:03:22.618Z,95.84
2018-11-25T07:04:03.166Z,95.55
2018-11-25T07:04:43.743Z,95.36
2018-11-25T07:05:24.575Z,95.36
2018-11-25T07:06:05.405Z,96.03
2018-11-25T07:06:46.058Z,95.65
2018-11-25T07:07:26.807Z,96.03
2018-11-25T07:08:07.628Z,95.93
2018-11-25T07:08:48.415Z,95.65
2018-11-25T07:09:29.106Z,95.93
2018-11-25T07:10:09.806Z,96.03
2018-11-25T07:10:50.515Z,95.84
2018-11-25T07:11:31.158Z,96.22
2018-11-25T07:12:11.920Z,96.41
2018-11-25T07:12:52.806Z,96.41
2018-11-25T07:13:33.671Z,96.31
2018-11-25T07:14:14.553Z,96.31
2018-11-25T07:14:55.129Z,96.22
2018-11-25T07:15:35.700Z,95.65
2018-11-25T07:16:16.255Z,96.03
2018-11-25T07:16:57.084Z,95.84
2018-11-25T07:17:37.633Z,95.84
2018-11-25T07:18:18.195Z,96.12
2018-11-25T07:18:58.757Z,95.74
2018-11-25T07:19:39.375Z,95.74
2018-11-25T07:20:19.859Z,96.22
2018-11-25T07:21:00.450Z,95.84
2018-11-25T07:21:40.999Z,95.93
2018-11-25T07:22:21.554Z,96.03
2018-11-25T07:23:02.120Z,95.65
2018-11-25T07:23:42.843Z,95.74
2018-11-25T07:24:23.389Z,96.03
2018-11-25T07:25:03.945Z,95.93
2018-11-25T07:25:44.492Z,95.84
2018-11-25T07:26:25.084Z,95.93
2018-11-25T07:27:05.633Z,95.46
2018-11-25T07:27:46.285Z,95.65
2018-11-25T07:28:26.825Z,95.74
2018-11-25T07:29:07.400Z,95.55
2018-11-25T07:29:47.966Z,95.84
2018-11-25T07:30:28.527Z,95.84
2018-11-25T07:31:09.120Z,95.93
2018-11-25T07:31:49.681Z,95.93
2018-11-25T07:32:30.231Z,95.74
2018-11-25T07:33:10.802Z,95.74
2018-11-25T07:33:51.472Z,95.84
2018-11-25T07:34:32.235Z,95.74
2018-11-25T07:35:12.811Z,95.74
2018-11-25T07:35:53.544Z,96.03
2018-11-25T07:36:34.315Z,96.12
2018-11-25T07:37:15.039Z,96.03
2018-11-25T07:37:55.801Z,95.93
2018-11-25T07:38:36.618Z,95.84
2018-11-25T07:39:17.367Z,95.93
2018-11-25T07:39:58.153Z,95.93
2018-11-25T07:40:38.944Z,95.93
2018-11-25T07:41:19.912Z,95.65
2018-11-25T07:42:01.148Z,96.41
2018-11-25T07:51:00.505Z,95.65
2018-11-25T07:51:41.065Z,96.5
2018-11-25T07:52:21.623Z,96.41
2018-11-25T07:53:02.180Z,96.41
2018-11-25T07:53:42.742Z,96.12
2018-11-25T07:54:23.295Z,96.41
2018-11-25T07:55:03.862Z,96.12
2018-11-25T07:55:44.418Z,96.22
2018-11-25T07:56:24.975Z,96.12
2018-11-25T07:57:05.534Z,96.59
2018-11-25T07:57:46.085Z,96.41
2018-11-25T07:58:26.644Z,96.41
2018-11-25T07:59:07.202Z,95.84
2018-11-25T07:59:47.781Z,96.03
2018-11-25T08:00:28.338Z,95.93
2018-11-25T08:01:08.897Z,95.84
2018-11-25T08:01:49.458Z,95.74
2018-11-25T08:02:30.030Z,95.84
2018-11-25T08:03:10.584Z,95.93
2018-11-25T08:03:51.145Z,95.74
2018-11-25T08:04:31.704Z,95.17
2018-11-25T08:05:12.261Z,95.27
2018-11-25T08:05:52.822Z,95.46
2018-11-25T08:06:33.379Z,94.98
2018-11-25T08:07:13.944Z,94.89
2018-11-25T08:07:54.498Z,94.98
2018-11-25T08:08:35.072Z,94.79
2018-11-25T08:09:15.624Z,95.17
2018-11-25T08:09:56.185Z,95.36
2018-11-25T08:10:36.741Z,95.27
2018-11-25T08:11:17.301Z,95.07
2018-11-25T08:11:57.855Z,94.79
2018-11-25T08:12:38.411Z,94.98
2018-11-25T08:13:18.968Z,95.27
2018-11-25T08:13:59.525Z,95.27
2018-11-25T08:14:40.080Z,95.36
2018-11-25T08:15:20.636Z,94.89
2018-11-25T08:16:01.197Z,94.98
2018-11-25T08:16:41.757Z,95.27
2018-11-25T08:17:22.316Z,95.46
2018-11-25T08:18:02.880Z,94.79
2018-11-25T08:18:43.435Z,94.7
2018-11-25T08:19:23.999Z,94.79
2018-11-25T08:20:04.562Z,95.17
2018-11-25T08:20:45.121Z,95.46
2018-11-25T08:21:25.671Z,95.27
2018-11-25T08:22:06.237Z,95.17
2018-11-25T08:22:46.797Z,95.17
2018-11-25T08:23:27.360Z,94.74
2018-11-25T08:24:07.918Z,95.03
2018-11-25T08:24:48.483Z,95.12
2018-11-25T08:25:29.053Z,94.93
2018-11-25T08:26:09.628Z,95.07
2018-11-25T08:26:50.187Z,95.27
2018-11-25T08:27:30.771Z,94.37
2018-11-25T08:28:11.331Z,95.6
2018-11-25T08:28:51.887Z,94.93
2018-11-25T08:29:32.444Z,95.03
2018-11-25T08:30:13.009Z,94.84
2018-11-25T08:30:53.578Z,95.03
2018-11-25T08:31:34.149Z,95.12
2018-11-25T08:32:14.710Z,94.74
2018-11-25T08:32:55.265Z,94.46
2018-11-25T08:33:35.841Z,94.65
2018-11-25T08:34:16.406Z,94.56
2018-11-25T08:34:56.963Z,94.7
2018-11-25T08:35:37.529Z,94.51
2018-11-25T08:36:18.090Z,94.56
2018-11-25T08:36:58.656Z,94.32
2018-11-25T08:37:39.226Z,94.79
2018-11-25T08:38:19.784Z,94.32
2018-11-25T08:39:00.364Z,94.32
2018-11-25T08:39:40.923Z,95.03
2018-11-25T08:40:21.589Z,95.6
2018-11-25T08:41:02.157Z,95.79
2018-11-25T08:41:42.713Z,95.98
2018-11-25T08:42:23.359Z,95.51
2018-11-25T08:43:03.923Z,95.6
2018-11-25T08:43:44.498Z,95.22
2018-11-25T08:44:25.055Z,95.12
2018-11-25T08:45:05.610Z,95.51
2018-11-25T08:45:46.168Z,95.12
2018-11-25T08:46:26.734Z,95.22
2018-11-25T08:47:07.323Z,95.03
2018-11-25T08:47:47.885Z,94.84
2018-11-25T08:48:28.451Z,94.74
2018-11-25T08:49:09.052Z,94.56
2018-11-25T08:49:49.613Z,94.74
2018-11-25T08:50:30.174Z,94.74
2018-11-25T08:51:10.733Z,94.74
2018-11-25T08:51:51.340Z,94.65
2018-11-25T08:52:31.891Z,94.56